Time;durP1;ratioP1;P1;durP2;ratioP2;P2;SDS_P1;SDS_P2;PMS_P1;PMS_P2;Temp;Humidity;BMP_temperature;BMP_pressure;BME280_temperature;BME280_humidity;BME280_pressure;Samples;Min_cycle;Max_cycle;Signal;HPM_P1;HPM_P2
2023/07/27 00:01:06;;;;;;;5.50;3.90;;;;;;;16.64;68.87;100390.44;4144060;28;20050;-62
2023/07/27 00:03:09;;;;;;;7.22;3.30;;;;;;;16.55;69.08;100394.06;4142677;28;20034;-63
2023/07/27 00:05:12;;;;;;;5.20;3.30;;;;;;;16.58;68.98;100387.91;4144244;28;20066;-62
2023/07/27 00:07:15;;;;;;;5.97;3.45;;;;;;;16.54;69.40;100392.34;4143784;28;20037;-62
2023/07/27 00:09:18;;;;;;;7.57;3.90;;;;;;;16.54;68.99;100387.09;4142926;28;20538;-63
2023/07/27 00:11:22;;;;;;;7.88;3.70;;;;;;;16.55;68.99;100394.06;4139335;28;20496;-62
2023/07/27 00:13:25;;;;;;;7.45;3.35;;;;;;;16.56;68.58;100387.06;4139974;28;20092;-62
2023/07/27 00:15:28;;;;;;;8.07;3.35;;;;;;;16.52;68.78;100382.75;4141891;28;20056;-62
2023/07/27 00:17:31;;;;;;;9.75;3.20;;;;;;;16.55;68.32;100377.44;4142042;28;20069;-62
2023/07/27 00:19:34;;;;;;;6.03;3.05;;;;;;;16.48;68.97;100381.03;4127912;28;20047;-62
2023/07/27 00:21:37;;;;;;;5.80;3.40;;;;;;;16.49;68.76;100372.28;4141710;28;20045;-63
2023/07/27 00:23:40;;;;;;;7.68;3.35;;;;;;;16.54;68.31;100371.34;4139012;28;20043;-62
2023/07/27 00:25:42;;;;;;;6.60;3.60;;;;;;;16.55;68.14;100374.81;4143184;28;20049;-63
2023/07/27 00:27:46;;;;;;;4.43;2.78;;;;;;;16.48;68.67;100375.78;4140724;28;20495;-62
2023/07/27 00:29:49;;;;;;;7.18;3.17;;;;;;;16.47;68.40;100374.91;4111306;28;20455;-62
2023/07/27 00:31:52;;;;;;;6.00;3.50;;;;;;;16.56;67.96;100373.94;4126050;28;20129;-62
2023/07/27 00:33:55;;;;;;;5.80;2.83;;;;;;;16.40;68.45;100368.00;4126769;28;20073;-63
2023/07/27 00:36:00;;;;;;;5.78;3.22;;;;;;;16.39;68.57;100364.50;4124402;28;20038;-63
2023/07/27 00:38:03;;;;;;;6.57;3.13;;;;;;;16.40;68.77;100362.75;4141389;28;20038;-63
2023/07/27 00:40:07;;;;;;;5.30;3.00;;;;;;;16.38;68.72;100360.16;4143997;28;20040;-62
2023/07/27 00:42:10;;;;;;;6.10;3.28;;;;;;;16.39;68.98;100356.63;4109362;28;20066;-62
2023/07/27 00:44:14;;;;;;;7.07;3.35;;;;;;;16.48;68.37;100358.28;4122213;28;20038;-62
2023/07/27 00:46:17;;;;;;;5.72;3.28;;;;;;;16.39;68.76;100356.63;4130633;28;20473;-62
2023/07/27 00:48:21;;;;;;;3.95;2.78;;;;;;;16.43;68.24;100365.34;4115269;28;20118;-63
2023/07/27 00:50:23;;;;;;;5.40;3.00;;;;;;;16.39;68.70;100356.63;4131857;28;20042;-62
2023/07/27 00:52:27;;;;;;;5.43;3.08;;;;;;;16.45;68.38;100354.81;4147318;28;20958;-62
2023/07/27 00:54:29;;;;;;;5.10;2.97;;;;;;;16.48;68.16;100352.16;4148580;28;20034;-63
2023/07/27 00:56:33;;;;;;;6.57;2.97;;;;;;;16.41;68.19;100353.97;4147989;28;20034;-63
2023/07/27 00:58:39;;;;;;;4.47;2.72;;;;;;;16.48;68.13;100350.41;4148665;28;20462;-62
2023/07/27 01:00:43;;;;;;;4.55;2.83;;;;;;;16.47;68.46;100347.78;4129704;28;20512;-62
2023/07/27 01:02:46;;;;;;;6.90;2.90;;;;;;;16.49;68.33;100346.03;4148563;28;20041;-62
2023/07/27 01:04:50;;;;;;;4.13;2.92;;;;;;;16.46;68.50;100335.59;4131118;28;20074;-62
2023/07/27 01:06:52;;;;;;;4.82;2.67;;;;;;;16.46;68.41;100343.47;4130952;28;20051;-63
2023/07/27 01:08:55;;;;;;;6.57;2.80;;;;;;;16.43;68.47;100338.22;4131118;28;20076;-63
2023/07/27 01:11:03;;;;;;;4.25;2.80;;;;;;;16.47;68.32;100339.91;4144081;28;20486;-62
2023/07/27 01:13:12;;;;;;;8.15;2.70;;;;;;;16.48;68.37;100336.41;4143812;28;20041;-62
2023/07/27 01:15:18;;;;;;;5.88;2.65;;;;;;;16.54;68.09;100323.22;4127095;28;20047;-63
2023/07/27 01:17:30;;;;;;;4.57;2.67;;;;;;;16.52;68.43;100325.00;4148082;28;20037;-63
2023/07/27 01:20:15;;;;;;;4.35;3.00;;;;;;;16.50;68.65;100327.66;4128323;28;20432;-63
2023/07/27 01:22:37;;;;;;;9.43;2.72;;;;;;;16.49;68.59;100314.56;4143710;28;20066;-63
2023/07/27 01:25:26;;;;;;;4.45;2.63;;;;;;;16.47;68.76;100324.19;4144530;28;20044;-62
2023/07/27 01:27:49;;;;;;;3.65;2.40;;;;;;;16.41;69.06;100314.63;4129226;28;20034;-62
2023/07/27 01:30:07;;;;;;;6.90;2.72;;;;;;;16.39;68.69;100314.63;4114420;28;20051;-62
2023/07/27 01:32:14;;;;;;;3.85;2.50;;;;;;;16.40;69.03;100312.91;4127326;28;20465;-62
2023/07/27 01:34:22;;;;;;;3.53;2.47;;;;;;;16.42;68.94;100307.63;4111387;28;20137;-62
2023/07/27 01:36:28;;;;;;;5.45;2.92;;;;;;;16.46;69.20;100299.69;4129567;28;20046;-62
2023/07/27 01:38:33;;;;;;;4.47;2.75;;;;;;;16.53;68.87;100305.75;4140713;28;20427;-62
2023/07/27 01:40:37;;;;;;;5.70;2.83;;;;;;;16.57;68.81;100296.94;4144013;28;20153;-62
2023/07/27 01:42:41;;;;;;;6.28;3.08;;;;;;;16.60;68.65;100296.03;4137835;28;20594;-63
2023/07/27 01:44:45;;;;;;;6.45;2.78;;;;;;;16.62;68.42;100295.13;4146902;28;20069;-62
2023/07/27 01:46:50;;;;;;;4.18;2.80;;;;;;;16.61;68.14;100296.00;4145628;28;20041;-62
2023/07/27 01:48:56;;;;;;;5.13;3.08;;;;;;;16.55;69.09;100294.31;4114345;28;20047;-62
2023/07/27 01:51:00;;;;;;;6.35;2.95;;;;;;;16.56;68.55;100295.22;4142705;28;20496;-62
2023/07/27 01:53:03;;;;;;;5.00;2.85;;;;;;;16.53;68.48;100295.25;4129542;28;20050;-62
2023/07/27 01:55:07;;;;;;;4.15;2.92;;;;;;;16.55;68.31;100289.06;4127369;28;20101;-62
2023/07/27 01:57:11;;;;;;;5.43;2.90;;;;;;;16.56;68.58;100284.72;4143087;28;20040;-62
2023/07/27 01:59:15;;;;;;;6.43;2.53;;;;;;;16.52;68.61;100276.00;4143066;28;20038;-63
2023/07/27 02:01:18;;;;;;;2.63;2.08;;;;;;;16.56;68.48;100282.09;4142649;28;20037;-62
2023/07/27 02:03:21;;;;;;;7.45;3.33;;;;;;;16.54;68.69;100274.25;4130102;28;21070;-62
2023/07/27 02:05:25;;;;;;;5.40;3.10;;;;;;;16.57;68.60;100265.44;4146933;28;20125;-62
2023/07/27 02:07:28;;;;;;;4.03;2.28;;;;;;;16.48;69.27;100266.44;4145248;28;20652;-62
2023/07/27 02:09:31;;;;;;;4.95;3.00;;;;;;;16.53;69.09;100263.78;4145416;28;20042;-62
2023/07/27 02:11:34;;;;;;;14.50;3.53;;;;;;;16.58;68.03;100254.06;4113997;28;20493;-62
2023/07/27 02:13:42;;;;;;;6.55;2.58;;;;;;;16.56;68.51;100248.84;4147152;28;20072;-62
2023/07/27 02:15:56;;;;;;;7.43;2.80;;;;;;;16.50;68.70;100242.78;4129756;28;20131;-63
2023/07/27 02:18:04;;;;;;;7.63;2.72;;;;;;;16.52;68.39;100241.03;4146966;28;20484;-62
2023/07/27 02:20:11;;;;;;;6.93;3.15;;;;;;;16.50;68.61;100241.06;4146924;28;20131;-62
2023/07/27 02:22:16;;;;;;;8.85;2.72;;;;;;;16.56;68.47;100235.72;4127193;28;20042;-62
2023/07/27 02:24:20;;;;;;;3.50;2.50;;;;;;;16.58;68.37;100240.94;4146726;28;20026;-62
2023/07/27 02:26:23;;;;;;;3.80;2.60;;;;;;;16.52;68.13;100235.78;4144050;28;20069;-63
2023/07/27 02:28:28;;;;;;;6.85;2.47;;;;;;;16.53;68.04;100241.00;4129988;28;20125;-63
2023/07/27 02:30:33;;;;;;;5.55;2.83;;;;;;;16.49;68.52;100231.44;4127399;28;20097;-62
2023/07/27 02:32:37;;;;;;;5.60;2.72;;;;;;;16.53;68.48;100232.28;4159065;23;20072;-71
2023/07/27 02:34:40;;;;;;;6.15;3.30;;;;;;;16.56;68.19;100237.47;4144699;28;20048;-70
2023/07/27 02:36:44;;;;;;;3.58;2.50;;;;;;;16.57;68.10;100223.44;4128883;28;20050;-71
2023/07/27 02:38:50;;;;;;;5.47;2.80;;;;;;;16.55;68.14;100222.63;4129228;28;20050;-70
2023/07/27 02:40:52;;;;;;;7.18;2.45;;;;;;;16.57;68.30;100236.56;4145352;28;20056;-70
2023/07/27 02:42:55;;;;;;;5.70;2.90;;;;;;;16.56;67.85;100222.59;4135700;28;20550;-71
2023/07/27 02:44:58;;;;;;;5.35;2.90;;;;;;;16.53;67.78;100224.41;4128528;28;20031;-70
2023/07/27 02:47:05;;;;;;;8.13;3.05;;;;;;;16.59;67.68;100229.56;4101559;28;20045;-70
2023/07/27 02:49:08;;;;;;;5.60;2.78;;;;;;;16.53;68.30;100232.28;4122206;28;20038;-70
2023/07/27 02:51:13;;;;;;;5.00;2.58;;;;;;;16.50;68.31;100234.91;4127701;28;20093;-71
2023/07/27 02:53:16;;;;;;;4.57;2.75;;;;;;;16.52;68.07;100235.78;4142939;28;20069;-72
2023/07/27 02:55:21;;;;;;;5.65;2.75;;;;;;;16.48;68.04;100226.22;4144238;28;20050;-71
2023/07/27 02:57:24;;;;;;;7.65;2.78;;;;;;;16.49;68.09;100235.81;4128421;28;20547;-71
2023/07/27 02:59:32;;;;;;;4.15;2.95;;;;;;;16.53;68.13;100227.03;4118587;28;20042;-71
2023/07/27 03:01:34;;;;;;;3.35;2.70;;;;;;;16.57;67.89;100236.56;4105252;28;20043;-70
2023/07/27 03:03:41;;;;;;;5.78;2.40;;;;;;;16.50;68.37;100240.16;4138756;28;20052;-71
2023/07/27 03:05:46;;;;;;;4.45;2.65;;;;;;;16.53;68.03;100237.53;4136326;28;20050;-72
2023/07/27 03:07:52;;;;;;;4.57;2.70;;;;;;;16.61;67.65;100235.63;4134121;28;20448;-71
2023/07/27 03:09:56;;;;;;;5.05;2.58;;;;;;;16.56;67.57;100237.47;4129305;28;20046;-71
2023/07/27 03:11:59;;;;;;;3.15;2.40;;;;;;;16.55;67.74;100240.97;4144855;28;20121;-72
2023/07/27 03:14:02;;;;;;;5.00;2.83;;;;;;;16.57;67.81;100229.59;4144754;28;20042;-71
2023/07/27 03:16:06;;;;;;;7.00;2.67;;;;;;;16.56;67.66;100232.22;4125818;28;20428;-72
2023/07/27 03:18:09;;;;;;;7.47;2.80;;;;;;;16.66;67.46;100235.56;4123721;28;20047;-71
2023/07/27 03:20:12;;;;;;;4.57;2.90;;;;;;;16.54;67.96;100232.25;4107084;28;20046;-71
2023/07/27 03:22:15;;;;;;;4.40;2.75;;;;;;;16.57;68.29;100226.97;4142386;28;20475;-71
2023/07/27 03:24:18;;;;;;;8.13;3.10;;;;;;;16.47;68.40;100229.72;4109399;28;20109;-71
2023/07/27 03:26:21;;;;;;;4.75;2.90;;;;;;;16.47;68.57;100227.09;4128160;28;20457;-71
2023/07/27 03:28:26;;;;;;;6.18;3.60;;;;;;;16.45;68.38;100231.50;4122704;28;20038;-71
2023/07/27 03:30:29;;;;;;;3.40;2.55;;;;;;;16.49;68.64;100228.81;4145911;28;20065;-72
2023/07/27 03:32:31;;;;;;;3.47;2.70;;;;;;;16.46;68.50;100235.88;4103755;28;20110;-72
2023/07/27 03:34:34;;;;;;;6.72;2.75;;;;;;;16.43;69.12;100226.28;4121944;28;20049;-71
2023/07/27 03:36:37;;;;;;;5.65;3.25;;;;;;;16.43;68.92;100222.75;4125575;28;20511;-71
2023/07/27 03:38:40;;;;;;;5.25;3.17;;;;;;;16.42;69.04;100227.16;4141916;28;20596;-72
2023/07/27 03:40:43;;;;;;;8.07;3.33;;;;;;;16.49;68.64;100222.72;4112742;28;20038;-71
2023/07/27 03:42:45;;;;;;;8.35;4.05;;;;;;;16.46;68.77;100214.88;4124696;28;20134;-72
2023/07/27 03:44:49;;;;;;;5.40;2.90;;;;;;;16.43;69.00;100214.91;4106849;28;20138;-73
2023/07/27 03:46:52;;;;;;;4.28;2.85;;;;;;;16.42;69.12;100214.03;4125079;28;20129;-72
2023/07/27 03:48:55;;;;;;;6.65;2.95;;;;;;;16.33;69.75;100214.19;4144217;28;20037;-72
2023/07/27 03:51:00;;;;;;;5.88;3.00;;;;;;;16.34;69.35;100208.03;4127952;28;20049;-71
2023/07/27 03:53:03;;;;;;;4.90;2.70;;;;;;;16.22;70.00;100209.06;4124664;28;20039;-71
2023/07/27 03:55:06;;;;;;;9.18;3.17;;;;;;;16.27;69.66;100211.66;4117931;28;20045;-72
2023/07/27 03:57:09;;;;;;;4.95;3.38;;;;;;;16.30;69.86;100209.81;4142368;28;20042;-71
2023/07/27 03:59:12;;;;;;;8.40;3.30;;;;;;;16.32;69.17;100208.03;4127991;28;20512;-71
2023/07/27 04:01:17;;;;;;;5.72;3.30;;;;;;;16.29;69.63;100207.22;4137259;28;20121;-71
2023/07/27 04:03:19;;;;;;;5.88;3.42;;;;;;;16.48;68.52;100203.44;4141365;28;20456;-71
2023/07/27 04:05:22;;;;;;;9.43;3.13;;;;;;;16.29;69.08;100196.72;4125594;28;20043;-71
2023/07/27 04:07:24;;;;;;;5.93;2.80;;;;;;;16.19;70.10;100191.63;4127631;28;20399;-72
2023/07/27 04:09:27;;;;;;;6.22;2.85;;;;;;;16.18;69.91;100197.75;4143012;28;20046;-71
2023/07/27 04:11:33;;;;;;;7.15;3.35;;;;;;;16.24;69.52;100196.81;4140280;28;20030;-71
2023/07/27 04:13:37;;;;;;;5.18;2.60;;;;;;;16.23;69.68;100182.81;4141216;28;20758;-71
2023/07/27 04:15:40;;;;;;;4.63;3.05;;;;;;;16.29;69.12;100184.47;4145226;28;20037;-71
2023/07/27 04:17:44;;;;;;;4.65;3.38;;;;;;;16.20;69.48;100182.84;4137885;28;20034;-71
2023/07/27 04:19:46;;;;;;;7.35;3.15;;;;;;;16.13;69.47;100181.19;4125447;28;20033;-71
2023/07/27 04:21:49;;;;;;;4.50;2.88;;;;;;;16.22;69.19;100185.44;4140797;28;20073;-71
2023/07/27 04:23:52;;;;;;;7.43;3.70;;;;;;;16.27;69.37;100178.41;4134091;28;20045;-70
2023/07/27 04:26:30;;;;;;;6.82;3.17;;;;;;;16.18;69.36;100182.00;4126635;28;20530;-72
2023/07/27 04:28:36;;;;;;;5.10;3.30;;;;;;;16.26;69.43;100181.03;4125114;28;20622;-69
2023/07/27 04:30:40;;;;;;;4.38;3.17;;;;;;;16.22;69.71;100174.94;4141286;28;20046;-70
2023/07/27 04:32:43;;;;;;;4.82;3.33;;;;;;;16.30;69.46;100178.34;4126871;28;20050;-71
2023/07/27 04:34:47;;;;;;;4.65;2.20;;;;;;;16.29;69.49;100192.34;4144983;28;20076;-70
2023/07/27 04:36:50;;;;;;;5.80;3.42;;;;;;;16.32;69.18;100187.06;4141399;28;20503;-70
2023/07/27 04:38:53;;;;;;;8.55;3.10;;;;;;;16.35;69.27;100186.16;4144122;28;20042;-70
2023/07/27 04:40:56;;;;;;;6.97;2.92;;;;;;;16.39;68.83;100180.84;4137744;28;20042;-71
2023/07/27 04:42:59;;;;;;;4.75;2.50;;;;;;;16.36;68.89;100186.13;4124073;28;20566;-70
2023/07/27 04:45:00;;;;;;;3.95;2.65;;;;;;;16.31;69.34;100193.22;4122683;28;20039;-70
2023/07/27 04:47:04;;;;;;;5.20;3.05;;;;;;;16.34;69.72;100189.66;4107449;28;20079;-70
2023/07/27 04:49:07;;;;;;;4.50;2.67;;;;;;;16.37;69.99;100190.50;4127768;28;20459;-70
2023/07/27 04:51:11;;;;;;;3.83;2.78;;;;;;;16.42;70.61;100189.56;4122183;28;20038;-70
2023/07/27 04:53:14;;;;;;;4.80;3.03;;;;;;;16.44;70.45;100182.53;4140500;28;20042;-72
2023/07/27 04:55:17;;;;;;;4.78;2.55;;;;;;;16.38;70.52;100176.50;4145475;28;20121;-71
2023/07/27 04:57:20;;;;;;;5.53;3.03;;;;;;;16.42;70.62;100184.31;4101371;28;20045;-70
2023/07/27 04:59:23;;;;;;;3.63;2.60;;;;;;;16.36;70.85;100180.03;4119878;28;20401;-70
2023/07/27 05:01:26;;;;;;;5.72;3.13;;;;;;;16.49;70.64;100183.34;4127897;28;20039;-71
2023/07/27 05:03:28;;;;;;;7.30;2.97;;;;;;;16.36;71.01;100183.50;4142102;28;20038;-70
2023/07/27 05:05:31;;;;;;;5.10;2.67;;;;;;;16.50;70.75;100174.56;4144496;28;20038;-71
2023/07/27 05:07:35;;;;;;;4.80;2.72;;;;;;;16.51;70.24;100178.94;4144633;28;20474;-71
2023/07/27 05:09:38;;;;;;;6.85;3.45;;;;;;;16.39;71.00;100172.97;4141457;28;20034;-71
2023/07/27 05:11:41;;;;;;;6.50;2.75;;;;;;;16.48;70.94;100165.84;4145072;28;20161;-59
2023/07/27 05:13:43;;;;;;;5.80;2.85;;;;;;;16.54;70.57;100163.13;4132496;28;20050;-60
2023/07/27 05:15:47;;;;;;;5.00;2.92;;;;;;;16.49;71.20;100162.34;4144786;28;20046;-59
2023/07/27 05:17:50;;;;;;;5.15;2.95;;;;;;;16.58;71.74;100168.31;4145091;28;20030;-76
2023/07/27 05:19:53;;;;;;;9.30;3.33;;;;;;;16.57;71.83;100166.59;4142340;28;20042;-76
2023/07/27 05:21:56;;;;;;;4.40;2.50;;;;;;;16.62;71.90;100165.63;4125869;28;20389;-70
2023/07/27 05:23:59;;;;;;;4.55;3.05;;;;;;;16.66;71.47;100160.34;4127672;28;20062;-72
2023/07/27 05:26:02;;;;;;;6.68;3.40;;;;;;;16.71;71.04;100161.13;4138314;28;20038;-73
2023/07/27 05:28:04;;;;;;;5.45;3.15;;;;;;;16.58;71.49;100164.81;4125581;28;20034;-72
2023/07/27 05:30:08;;;;;;;6.03;2.40;;;;;;;16.57;71.53;100168.34;4146105;28;20030;-73
2023/07/27 05:32:10;;;;;;;2.95;2.45;;;;;;;16.68;71.85;100169.03;4130290;28;20038;-73
2023/07/27 05:34:13;;;;;;;4.13;2.75;;;;;;;16.57;71.83;100173.59;4126991;28;20046;-73
2023/07/27 05:36:16;;;;;;;5.35;3.03;;;;;;;16.56;72.00;100174.50;4147636;28;20058;-72
2023/07/27 05:38:19;;;;;;;6.78;3.10;;;;;;;16.61;72.36;100175.28;4146685;28;20076;-69
2023/07/27 05:40:23;;;;;;;4.32;2.80;;;;;;;16.67;72.24;100162.03;4146244;28;20129;-73
2023/07/27 05:42:26;;;;;;;3.78;2.58;;;;;;;16.77;72.03;100162.78;4146790;28;20037;-71
2023/07/27 05:44:32;;;;;;;4.63;2.85;;;;;;;16.75;72.46;100165.44;4139761;28;20061;-76
2023/07/27 05:46:35;;;;;;;5.47;3.10;;;;;;;16.69;72.53;100165.53;4125390;28;20602;-78
2023/07/27 05:48:39;;;;;;;5.10;3.33;;;;;;;16.85;71.97;100160.03;4146165;28;20045;-78
2023/07/27 05:50:42;;;;;;;6.93;3.20;;;;;;;16.86;72.41;100156.50;4147216;28;20070;-70
2023/07/27 05:52:44;;;;;;;3.90;3.20;;;;;;;16.96;71.94;100160.75;4143321;28;20407;-70
2023/07/27 05:54:47;;;;;;;4.03;2.75;;;;;;;16.92;71.88;100149.44;4144080;28;20034;-73
2023/07/27 05:56:51;;;;;;;4.90;3.08;;;;;;;16.90;72.22;100152.97;4126395;28;20050;-69
2023/07/27 05:58:54;;;;;;;4.75;2.95;;;;;;;16.97;71.77;100149.34;4144237;28;20038;-71
2023/07/27 06:01:01;;;;;;;4.47;3.25;;;;;;;16.92;71.84;100151.19;4139610;28;20041;-71
2023/07/27 06:03:04;;;;;;;4.88;3.50;;;;;;;16.79;72.01;100149.63;4124918;28;20524;-71
2023/07/27 06:05:08;;;;;;;4.55;2.65;;;;;;;16.78;71.97;100143.53;4125167;28;20062;-74
2023/07/27 06:07:11;;;;;;;6.00;2.92;;;;;;;16.75;72.27;100147.06;4147153;28;20049;-73
2023/07/27 06:09:14;;;;;;;5.47;3.22;;;;;;;16.76;72.50;100145.28;4146828;28;20038;-74
2023/07/27 06:11:18;;;;;;;4.75;3.03;;;;;;;16.82;72.73;100139.97;4129015;28;20515;-73
2023/07/27 06:13:22;;;;;;;8.40;3.83;;;;;;;16.90;72.70;100135.47;4146871;28;20065;-73
2023/07/27 06:15:26;;;;;;;4.80;2.97;;;;;;;16.81;72.83;100137.38;4147607;28;20048;-72
2023/07/27 06:17:29;;;;;;;6.22;3.15;;;;;;;16.73;72.76;100134.84;4113607;28;20038;-71
2023/07/27 06:19:32;;;;;;;6.35;3.72;;;;;;;16.84;72.70;100137.31;4146465;28;20041;-71
2023/07/27 06:21:34;;;;;;;7.15;3.00;;;;;;;16.79;73.39;100132.09;4146787;28;20038;-72
2023/07/27 06:23:37;;;;;;;5.32;3.20;;;;;;;16.75;73.54;100133.94;4146990;28;20042;-73
2023/07/27 06:25:42;;;;;;;9.60;3.58;;;;;;;16.81;73.15;100132.09;4144871;28;20042;-70
2023/07/27 06:27:45;;;;;;;5.25;3.65;;;;;;;16.77;73.33;100135.66;4146893;28;20499;-72
2023/07/27 06:29:49;;;;;;;5.07;3.08;;;;;;;16.83;73.23;100130.31;4143490;28;20044;-71
2023/07/27 06:31:52;;;;;;;5.38;3.33;;;;;;;16.79;73.54;100120.75;4146958;28;20500;-71
2023/07/27 06:33:55;;;;;;;5.60;3.45;;;;;;;16.83;73.37;100114.56;4122256;28;20042;-71
2023/07/27 06:35:58;;;;;;;5.90;3.63;;;;;;;16.80;73.31;100122.50;4143919;28;20125;-71
2023/07/27 06:38:01;;;;;;;4.70;2.85;;;;;;;16.74;73.72;100126.09;4146738;28;20042;-68
2023/07/27 06:40:05;;;;;;;4.22;2.90;;;;;;;16.80;73.21;100131.22;4123548;28;20116;-68
2023/07/27 06:42:08;;;;;;;7.10;3.38;;;;;;;16.78;73.45;100133.03;4146270;28;20072;-68
2023/07/27 06:44:11;;;;;;;4.38;3.13;;;;;;;16.79;73.69;100123.38;4129270;28;20053;-67
2023/07/27 06:46:16;;;;;;;8.13;3.17;;;;;;;16.78;74.27;100132.13;4144126;28;20046;-69
2023/07/27 06:48:19;;;;;;;;;;;;;;;16.62;73.74;100129.78;4141904;28;20073;-69
2023/07/27 06:50:22;;;;;;;6.35;3.65;;;;;;;16.67;74.42;100127.06;4146397;28;20050;-71
2023/07/27 06:52:25;;;;;;;5.43;3.50;;;;;;;16.74;74.60;100123.47;4144445;28;20046;-72
2023/07/27 06:54:27;;;;;;;4.50;3.00;;;;;;;16.64;74.44;100124.50;4146201;28;20030;-77
2023/07/27 06:56:30;;;;;;;5.18;3.67;;;;;;;16.64;74.89;100124.50;4142973;28;20085;-77
2023/07/27 06:58:34;;;;;;;8.68;3.65;;;;;;;16.67;74.83;100130.56;4142210;28;20051;-78
2023/07/27 07:00:38;;;;;;;6.75;3.40;;;;;;;16.61;74.89;100125.41;4124660;28;20676;-78
2023/07/27 07:02:43;;;;;;;6.05;3.95;;;;;;;16.58;74.34;100128.94;4145629;28;20041;-77
2023/07/27 07:04:46;;;;;;;5.57;3.83;;;;;;;16.56;74.91;100124.63;4142362;28;20052;-77
2023/07/27 07:06:49;;;;;;;6.00;3.63;;;;;;;16.61;74.83;100125.41;4141718;28;20045;-77
2023/07/27 07:08:52;;;;;;;5.55;3.70;;;;;;;16.63;74.33;100126.28;4146091;28;21565;-78
2023/07/27 07:10:54;;;;;;;5.03;3.15;;;;;;;16.59;74.49;100132.44;4142601;28;20468;-76
2023/07/27 07:12:58;;;;;;;7.20;3.90;;;;;;;16.64;74.75;100127.13;4125876;28;20069;-76
2023/07/27 07:15:02;;;;;;;5.28;3.30;;;;;;;16.60;75.24;100130.69;4115719;28;20415;-77
2023/07/27 07:17:05;;;;;;;5.65;3.30;;;;;;;16.56;75.47;100124.63;4145137;28;20042;-77
2023/07/27 07:19:10;;;;;;;6.85;3.30;;;;;;;16.63;74.99;100128.91;4128630;28;20038;-77
2023/07/27 07:21:12;;;;;;;6.93;3.40;;;;;;;16.57;75.01;100127.22;4146158;28;20038;-77
2023/07/27 07:23:15;;;;;;;7.03;2.95;;;;;;;16.50;75.12;100137.81;4142631;28;20041;-77
2023/07/27 07:25:17;;;;;;;6.70;3.15;;;;;;;16.48;75.31;100129.13;4142138;28;20494;-77
2023/07/27 07:27:20;;;;;;;6.45;3.40;;;;;;;16.55;75.30;100133.38;4145270;28;20046;-77
2023/07/27 07:29:23;;;;;;;9.98;3.50;;;;;;;16.65;74.95;100126.25;4146117;28;20108;-77
2023/07/27 07:31:26;;;;;;;6.25;3.63;;;;;;;16.62;75.06;100116.66;4146281;28;20053;-76
2023/07/27 07:33:29;;;;;;;6.78;3.47;;;;;;;16.62;75.56;100121.00;4127907;28;20045;-77
2023/07/27 07:35:38;;;;;;;6.53;3.53;;;;;;;16.63;75.40;100122.75;4143002;28;20491;-77
2023/07/27 07:37:41;;;;;;;4.78;3.40;;;;;;;16.55;75.58;100115.88;4143881;28;20066;-77
2023/07/27 07:39:44;;;;;;;7.07;3.53;;;;;;;16.64;75.55;100121.88;4127015;28;20034;-77
2023/07/27 07:41:46;;;;;;;6.82;3.47;;;;;;;16.53;75.70;100116.81;4123619;28;20038;-76
2023/07/27 07:43:48;;;;;;;5.47;2.72;;;;;;;16.54;76.11;100121.16;4127603;28;20124;-76
2023/07/27 07:45:51;;;;;;;7.80;3.75;;;;;;;16.70;75.96;100119.16;4128216;28;20459;-76
2023/07/27 07:47:54;;;;;;;5.88;3.17;;;;;;;16.58;76.29;100115.81;4128148;28;20066;-76
2023/07/27 07:49:59;;;;;;;6.28;3.75;;;;;;;16.67;76.55;100114.81;4140779;28;20169;-76
2023/07/27 07:52:03;;;;;;;10.35;4.32;;;;;;;16.63;77.14;100107.91;4107310;28;20511;-76
2023/07/27 07:54:09;;;;;;;;;;;;;;;16.65;76.83;100116.59;4125621;28;20047;-75
2023/07/27 07:56:13;;;;;;;;;;;;;;;16.47;77.49;100115.16;4141040;28;19921;-76
2023/07/27 07:58:16;;;;;;;6.18;3.35;;;;;;;16.53;77.63;100104.53;4145093;28;20459;-75
2023/07/27 08:00:19;;;;;;;6.95;3.38;;;;;;;16.63;77.58;100104.38;4127899;28;20042;-75
2023/07/27 08:02:22;;;;;;;6.72;3.33;;;;;;;16.74;77.41;100100.69;4142518;28;20138;-75
2023/07/27 08:04:25;;;;;;;8.80;4.10;;;;;;;16.74;77.56;100105.94;4121383;28;20078;-75
2023/07/27 08:06:38;;;;;;;7.00;3.67;;;;;;;16.70;77.99;100106.03;4143264;28;20049;-76
2023/07/27 08:08:42;;;;;;;6.03;3.33;;;;;;;16.75;77.93;100102.44;4144086;28;20165;-75
2023/07/27 08:10:45;;;;;;;8.15;3.58;;;;;;;16.88;77.75;100086.47;4144216;28;20561;-76
2023/07/27 08:12:49;;;;;;;8.93;4.20;;;;;;;16.88;77.30;100097.88;4145327;28;20492;-75
2023/07/27 08:14:52;;;;;;;6.97;3.20;;;;;;;16.66;78.12;100093.84;4146138;28;20483;-75
2023/07/27 08:16:55;;;;;;;6.05;3.83;;;;;;;16.67;78.10;100085.94;4142030;28;20073;-75
2023/07/27 08:18:58;;;;;;;7.28;3.40;;;;;;;16.73;77.52;100088.47;4143973;28;20042;-75
2023/07/27 08:21:02;;;;;;;6.45;3.63;;;;;;;16.69;78.13;100076.28;4144995;28;20488;-75
2023/07/27 08:23:05;;;;;;;4.97;3.60;;;;;;;16.61;78.44;100078.16;4144265;28;20038;-74
2023/07/27 08:25:10;;;;;;;7.60;3.50;;;;;;;16.63;78.59;100088.63;4110849;28;20055;-74
2023/07/27 08:27:23;;;;;;;11.40;4.30;;;;;;;16.65;78.77;100084.25;4144347;28;20044;-75
2023/07/27 08:29:26;;;;;;;6.50;3.75;;;;;;;16.66;78.89;100078.97;4140027;28;20140;-75
2023/07/27 08:31:29;;;;;;;10.05;3.90;;;;;;;16.70;79.10;100075.38;4144574;28;20042;-74
2023/07/27 08:33:32;;;;;;;5.97;3.90;;;;;;;16.71;78.72;100077.13;4155559;23;20061;-69
2023/07/27 08:35:36;;;;;;;6.88;4.05;;;;;;;16.76;78.65;100077.03;4141629;28;20045;-68
2023/07/27 08:37:39;;;;;;;7.10;4.70;;;;;;;16.63;78.38;100075.53;4140443;28;20322;-69
2023/07/27 08:39:42;;;;;;;7.43;3.80;;;;;;;16.59;78.87;100074.72;4142355;28;20395;-69
2023/07/27 08:41:46;;;;;;;5.15;3.80;;;;;;;16.54;78.76;100072.19;4145203;28;20046;-69
2023/07/27 08:43:50;;;;;;;9.38;3.95;;;;;;;16.38;79.24;100076.81;4121272;28;20078;-69
2023/07/27 08:45:53;;;;;;;8.23;4.50;;;;;;;16.46;78.98;100068.81;4128996;28;20094;-69
2023/07/27 08:47:57;;;;;;;6.25;3.80;;;;;;;16.36;79.35;100070.69;4112591;28;20437;-69
2023/07/27 08:50:01;;;;;;;6.80;4.00;;;;;;;16.47;79.46;100072.28;4125516;28;20042;-69
2023/07/27 08:52:04;;;;;;;9.80;4.73;;;;;;;16.33;79.56;100062.03;4118932;28;20031;-69
2023/07/27 08:54:07;;;;;;;5.67;3.63;;;;;;;16.26;80.39;100066.50;4137907;28;20077;-69
2023/07/27 08:56:10;;;;;;;11.80;4.20;;;;;;;16.27;80.04;100064.75;4146157;28;20044;-69
2023/07/27 08:58:15;;;;;;;5.93;4.13;;;;;;;16.29;80.39;100063.81;4137724;28;20034;-68
2023/07/27 09:00:19;;;;;;;5.90;3.83;;;;;;;16.34;80.22;100067.25;4116305;28;20061;-69
2023/07/27 09:02:21;;;;;;;6.57;3.97;;;;;;;16.45;79.77;100074.06;4104553;28;20043;-69
2023/07/27 09:04:24;;;;;;;8.23;4.40;;;;;;;16.49;79.73;100062.66;4124594;28;20961;-68
2023/07/27 09:06:39;;;;;;;5.32;3.38;;;;;;;16.44;80.22;100060.09;4107027;28;20039;-68
2023/07/27 09:08:43;;;;;;;6.18;3.70;;;;;;;16.43;79.94;100062.72;4131735;28;20038;-68
2023/07/27 09:10:46;;;;;;;7.47;3.80;;;;;;;16.44;80.45;100056.59;4112381;28;20070;-69
2023/07/27 09:12:49;;;;;;;6.35;4.20;;;;;;;16.57;80.08;100058.09;4118445;28;20034;-68
2023/07/27 09:14:54;;;;;;;6.30;3.58;;;;;;;16.52;80.36;100059.97;4133129;28;20062;-68
2023/07/27 09:16:57;;;;;;;6.03;3.70;;;;;;;16.52;80.06;100055.56;4133354;28;20069;-68
2023/07/27 09:19:00;;;;;;;7.53;3.78;;;;;;;16.62;79.55;100053.66;4134581;28;20042;-68
2023/07/27 09:21:07;;;;;;;7.30;3.70;;;;;;;16.56;79.44;100048.53;4114834;28;20039;-68
2023/07/27 09:23:19;;;;;;;6.63;4.07;;;;;;;16.64;78.95;100036.13;4129826;28;20058;-68
2023/07/27 09:25:23;;;;;;;4.90;3.35;;;;;;;16.57;79.45;100040.63;4124684;28;20134;-68
2023/07/27 09:27:25;;;;;;;6.47;3.77;;;;;;;16.59;79.47;100053.72;4129880;28;20104;-68
2023/07/27 09:29:29;;;;;;;6.90;4.28;;;;;;;16.58;79.77;100050.22;4137524;28;20293;-68
2023/07/27 09:31:36;;;;;;;9.02;4.00;;;;;;;16.78;78.91;100041.13;4129178;28;20038;-68
2023/07/27 09:33:39;;;;;;;6.85;4.10;;;;;;;16.70;79.15;100046.50;4132663;28;20046;-68
2023/07/27 09:35:43;;;;;;;7.25;3.80;;;;;;;16.65;79.31;100050.13;4135973;28;20046;-68
2023/07/27 09:37:47;;;;;;;;;;;;;;;16.57;80.14;100050.25;4129205;28;20043;-68
2023/07/27 09:40:05;;;;;;;8.02;4.15;;;;;;;16.54;80.32;100039.81;4100166;28;19944;-68